Time;durP1;ratioP1;P1;durP2;ratioP2;P2;SDS_P1;SDS_P2;PMS_P1;PMS_P2;Temp;Humidity;BMP_temperature;BMP_pressure;BME280_temperature;BME280_humidity;BME280_pressure;Samples;Min_cycle;Max_cycle;Signal;HPM_P1;HPM_P2
2023/10/19 00:01:08;;;;;;;19.85;17.35;;;10.60;99.90;;;;;;4990022;28;20027;-91
2023/10/19 00:03:34;;;;;;;19.15;17.10;;;10.60;99.90;;;;;;4975993;28;20028;-93
2023/10/19 00:06:00;;;;;;;20.10;17.83;;;10.60;99.90;;;;;;4977587;28;20161;-92
2023/10/19 00:08:30;;;;;;;17.83;15.48;;;10.60;99.90;;;;;;4988863;28;20050;-93
2023/10/19 00:13:35;;;;;;;19.65;17.40;;;10.60;99.90;;;;;;4996452;28;20051;-92
2023/10/19 00:16:01;;;;;;;19.75;17.63;;;10.60;99.90;;;;;;4979476;28;20022;-93
2023/10/19 00:18:27;;;;;;;20.42;17.60;;;10.60;99.90;;;;;;4987120;28;20023;-92
2023/10/19 00:23:39;;;;;;;18.45;15.70;;;10.60;99.90;;;;;;4993801;28;20580;-92
2023/10/19 00:26:08;;;;;;;18.25;16.27;;;10.70;99.90;;;;;;5002710;28;20022;-93
2023/10/19 00:28:38;;;;;;;21.98;16.50;;;10.70;99.90;;;;;;4995608;28;20031;-91
2023/10/19 00:31:08;;;;;;;19.42;17.42;;;10.60;99.90;;;;;;4971978;28;20050;-94
2023/10/19 00:33:38;;;;;;;18.95;15.40;;;10.70;99.90;;;;;;4976870;28;20033;-91
2023/10/19 00:36:08;;;;;;;19.30;17.17;;;10.70;99.90;;;;;;4974381;28;20408;-92
2023/10/19 00:43:43;;;;;;;19.67;17.02;;;10.80;99.90;;;;;;4982084;28;20031;-94
2023/10/19 00:48:54;;;;;;;19.40;17.40;;;10.80;99.90;;;;;;4987453;28;20109;-93
2023/10/19 00:51:54;;;;;;;19.38;17.35;;;10.80;99.90;;;;;;4999468;28;20064;-92
2023/10/19 00:54:33;;;;;;;;;;;10.70;99.90;;;;;;4978071;28;20058;-94
2023/10/19 00:57:07;;;;;;;19.92;16.88;;;10.70;99.90;;;;;;4993597;28;20021;-90
2023/10/19 00:59:47;;;;;;;18.42;16.17;;;10.70;99.90;;;;;;4987199;28;20023;-93
2023/10/19 01:02:31;;;;;;;18.65;15.65;;;10.70;99.90;;;;;;4980974;28;20026;-94
2023/10/19 01:05:00;;;;;;;20.65;18.33;;;10.60;99.90;;;;;;4983990;28;20031;-93
2023/10/19 01:07:30;;;;;;;20.55;16.08;;;10.70;99.90;;;;;;4981070;28;20018;-91
2023/10/19 01:10:05;;;;;;;20.42;17.48;;;10.60;99.90;;;;;;4985830;28;20045;-92
2023/10/19 01:15:23;;;;;;;20.80;17.83;;;10.70;99.90;;;;;;4992422;28;20054;-92
2023/10/19 01:17:56;;;;;;;19.23;17.30;;;10.70;99.90;;;;;;4992500;28;20053;-93
2023/10/19 01:31:30;;;;;;;23.08;17.77;;;10.80;99.90;;;;;;4987421;28;20119;-93
2023/10/19 01:34:03;;;;;;;20.25;17.38;;;10.80;99.90;;;;;;4988476;28;20572;-92
2023/10/19 01:36:32;;;;;;;21.05;17.08;;;10.80;99.90;;;;;;4995358;28;20023;-93
2023/10/19 01:39:01;;;;;;;22.17;17.30;;;10.90;99.90;;;;;;4997612;28;20033;-92
2023/10/19 01:41:28;;;;;;;19.25;17.10;;;10.80;99.90;;;;;;4994021;28;20030;-92
2023/10/19 01:43:54;;;;;;;20.02;16.85;;;10.90;99.90;;;;;;4987762;28;20034;-92
2023/10/19 01:46:23;;;;;;;19.63;17.38;;;10.90;99.90;;;;;;4973936;28;20090;-92
2023/10/19 01:48:53;;;;;;;20.42;18.23;;;11.00;99.90;;;;;;4993865;28;20034;-91
2023/10/19 01:51:20;;;;;;;19.58;16.60;;;11.00;99.90;;;;;;4987348;28;20038;-93
2023/10/19 01:53:47;;;;;;;19.42;17.02;;;11.00;99.90;;;;;;4993198;28;20041;-93
2023/10/19 01:56:14;;;;;;;19.77;17.10;;;11.00;99.90;;;;;;4987470;28;20046;-93
2023/10/19 01:58:46;;;;;;;20.55;18.25;;;11.00;99.90;;;;;;4986423;28;20048;-92
2023/10/19 02:03:43;;;;;;;16.63;14.85;;;11.00;99.90;;;;;;4991637;28;20026;-94
2023/10/19 02:06:17;;;;;;;19.30;17.30;;;11.00;99.90;;;;;;4972142;28;20034;-92
2023/10/19 02:08:48;;;;;;;18.52;16.52;;;11.00;99.90;;;;;;4983510;28;20058;-90
2023/10/19 02:11:18;;;;;;;19.08;17.00;;;11.00;99.90;;;;;;4974189;28;20573;-93
2023/10/19 02:13:51;;;;;;;18.25;16.33;;;11.10;99.90;;;;;;4983281;28;20054;-93
2023/10/19 02:16:22;;;;;;;18.52;15.15;;;11.00;99.90;;;;;;4984270;28;20019;-94
2023/10/19 02:18:49;;;;;;;17.67;15.60;;;11.10;99.90;;;;;;4984395;28;20030;-92
2023/10/19 02:21:30;;;;;;;17.65;15.75;;;11.10;99.90;;;;;;4998158;28;20030;-94
2023/10/19 02:23:59;;;;;;;19.25;17.35;;;11.10;99.90;;;;;;5005078;28;20022;-91
2023/10/19 02:26:27;;;;;;;17.83;15.60;;;11.10;99.90;;;;;;5005352;28;20053;-93
2023/10/19 02:28:55;;;;;;;18.05;15.05;;;11.00;99.90;;;;;;4985441;28;20027;-93
2023/10/19 02:31:23;;;;;;;20.25;16.73;;;11.10;99.90;;;;;;4985906;28;20027;-93
2023/10/19 02:33:52;;;;;;;17.10;14.82;;;11.10;99.90;;;;;;4983141;28;20026;-94
2023/10/19 02:36:20;;;;;;;17.40;15.10;;;11.10;99.90;;;;;;4995990;28;20042;-94
2023/10/19 02:38:51;;;;;;;20.00;17.55;;;11.10;99.90;;;;;;4998813;28;20037;-93
2023/10/19 02:41:18;;;;;;;16.65;13.65;;;11.10;99.90;;;;;;4989120;28;20296;-91
2023/10/19 02:43:51;;;;;;;16.52;14.88;;;11.10;99.90;;;;;;4974241;28;20083;-93
2023/10/19 02:46:20;;;;;;;19.02;17.08;;;11.20;99.90;;;;;;5001379;28;20113;-92
2023/10/19 02:48:47;;;;;;;18.50;16.65;;;11.20;99.90;;;;;;4984874;28;20027;-93
2023/10/19 02:51:13;;;;;;;19.63;16.77;;;11.20;99.90;;;;;;4995565;28;20082;-92
2023/10/19 02:53:42;;;;;;;18.10;15.90;;;11.20;99.90;;;;;;4981139;28;20034;-92
2023/10/19 02:56:16;;;;;;;19.20;17.13;;;11.20;99.90;;;;;;4996778;28;20023;-93
2023/10/19 02:58:43;;;;;;;;;;;11.20;99.90;;;;;;4972626;28;20023;-93
2023/10/19 03:01:21;;;;;;;18.67;15.85;;;11.20;99.90;;;;;;4971614;28;19933;-93
2023/10/19 03:03:51;;;;;;;17.20;15.32;;;11.20;99.90;;;;;;4981193;28;20023;-92
2023/10/19 03:06:25;;;;;;;20.40;15.93;;;11.20;99.90;;;;;;4981385;28;20033;-94
2023/10/19 03:09:04;;;;;;;20.17;16.88;;;11.20;99.90;;;;;;4965410;28;20031;-92
2023/10/19 03:11:32;;;;;;;21.00;17.17;;;11.20;99.90;;;;;;4973599;28;20121;-93
2023/10/19 03:13:58;;;;;;;19.85;17.75;;;11.20;99.90;;;;;;4989128;28;20078;-95
2023/10/19 03:16:24;;;;;;;21.45;16.63;;;11.20;99.90;;;;;;4968360;28;20023;-93
2023/10/19 03:18:54;;;;;;;22.05;18.27;;;11.20;99.90;;;;;;4981374;28;20026;-93
2023/10/19 03:21:26;;;;;;;21.35;18.50;;;11.30;99.90;;;;;;4987874;28;20019;-91
2023/10/19 03:23:53;;;;;;;20.10;17.65;;;11.30;99.90;;;;;;4989503;28;20485;-91
2023/10/19 03:26:30;;;;;;;19.63;17.55;;;11.30;99.90;;;;;;4983702;28;20086;-94
2023/10/19 03:29:03;;;;;;;21.55;18.13;;;11.30;99.90;;;;;;4974275;28;20118;-93
2023/10/19 03:31:29;;;;;;;17.80;14.23;;;11.30;99.90;;;;;;5000596;28;20030;-93
2023/10/19 03:33:55;;;;;;;20.75;18.33;;;11.40;99.90;;;;;;4982202;28;20059;-93
2023/10/19 03:36:26;;;;;;;21.88;15.68;;;11.50;99.90;;;;;;4981626;28;20521;-93
2023/10/19 03:38:53;;;;;;;20.27;15.85;;;11.40;99.90;;;;;;4989462;28;20091;-94
2023/10/19 03:41:25;;;;;;;18.05;15.13;;;11.40;99.90;;;;;;4981342;28;20121;-93
2023/10/19 03:43:57;;;;;;;20.58;15.90;;;11.50;99.90;;;;;;4985870;28;20030;-93
2023/10/19 03:46:28;;;;;;;19.80;17.58;;;11.40;99.90;;;;;;4995456;28;20058;-94
2023/10/19 03:48:58;;;;;;;19.05;16.40;;;11.40;99.90;;;;;;4982747;28;20030;-94
2023/10/19 03:51:26;;;;;;;21.50;17.95;;;11.50;99.90;;;;;;4983438;28;20035;-94
2023/10/19 03:54:01;;;;;;;19.05;15.98;;;11.50;99.90;;;;;;4993617;28;20049;-93
2023/10/19 03:56:26;;;;;;;19.10;17.02;;;11.50;99.90;;;;;;4982351;28;20015;-93
2023/10/19 03:58:52;;;;;;;17.00;15.15;;;11.50;99.90;;;;;;4980130;28;20091;-93
2023/10/19 04:01:19;;;;;;;19.33;16.55;;;11.50;99.90;;;;;;4984017;28;20098;-95
2023/10/19 04:03:46;;;;;;;19.60;17.05;;;11.40;99.90;;;;;;4981852;28;20054;-94
2023/10/19 04:06:14;;;;;;;21.35;18.38;;;11.50;99.90;;;;;;4989141;28;20030;-94
2023/10/19 04:08:42;;;;;;;16.50;14.80;;;11.40;99.90;;;;;;4990497;28;20030;-92
2023/10/19 04:11:11;;;;;;;18.48;16.35;;;11.30;99.90;;;;;;4963130;28;20110;-91
2023/10/19 04:13:40;;;;;;;16.95;15.25;;;11.20;99.90;;;;;;4988204;28;20038;-92
2023/10/19 04:16:09;;;;;;;17.60;15.68;;;11.20;99.90;;;;;;4986782;28;20023;-91
2023/10/19 04:18:38;;;;;;;17.02;15.23;;;11.20;99.90;;;;;;4979559;28;20023;-92
2023/10/19 04:21:04;;;;;;;18.48;16.52;;;11.20;99.90;;;;;;4999120;28;20015;-92
2023/10/19 04:23:34;;;;;;;19.75;17.73;;;11.10;99.90;;;;;;4977222;28;20031;-91
2023/10/19 04:26:05;;;;;;;18.38;16.52;;;11.10;99.90;;;;;;4981674;28;20033;-91
2023/10/19 04:28:32;;;;;;;20.42;18.38;;;11.10;99.90;;;;;;4981335;28;20037;-92
2023/10/19 04:31:02;;;;;;;15.80;14.15;;;11.10;99.90;;;;;;4992548;28;20034;-93
2023/10/19 04:33:30;;;;;;;15.85;14.35;;;11.00;99.90;;;;;;4978570;28;20024;-93
2023/10/19 04:35:56;;;;;;;16.17;14.52;;;10.90;99.90;;;;;;4954113;28;20160;-92
2023/10/19 04:38:23;;;;;;;13.85;12.25;;;10.90;99.90;;;;;;4982527;28;20589;-91
2023/10/19 04:40:49;;;;;;;14.82;13.25;;;10.90;99.90;;;;;;4978210;28;20039;-93
2023/10/19 04:43:16;;;;;;;16.42;14.73;;;10.80;99.90;;;;;;4979913;28;20027;-93
2023/10/19 04:45:44;;;;;;;24.90;22.52;;;10.70;99.90;;;;;;4981343;28;20048;-90
2023/10/19 04:48:10;;;;;;;16.60;14.90;;;10.70;99.90;;;;;;4987721;28;20493;-91
2023/10/19 04:50:36;;;;;;;14.95;13.45;;;10.70;99.90;;;;;;4991188;28;20035;-91
2023/10/19 04:53:02;;;;;;;14.90;12.98;;;10.60;99.90;;;;;;4983271;28;20042;-93
2023/10/19 04:55:29;;;;;;;15.88;14.18;;;10.60;99.90;;;;;;4977235;28;20030;-92
2023/10/19 04:57:56;;;;;;;15.15;13.57;;;10.60;99.90;;;;;;4982326;28;20050;-91
2023/10/19 05:00:24;;;;;;;15.07;12.60;;;10.60;99.90;;;;;;4976316;28;20027;-94
2023/10/19 05:02:51;;;;;;;15.07;13.10;;;10.60;99.90;;;;;;4983582;28;20166;-91
2023/10/19 05:05:18;;;;;;;17.13;15.50;;;10.60;99.90;;;;;;4972637;28;20039;-93
2023/10/19 05:07:44;;;;;;;15.70;14.10;;;10.60;99.90;;;;;;4993229;28;20035;-92
2023/10/19 05:10:11;;;;;;;16.60;14.40;;;10.60;99.90;;;;;;4975148;28;20050;-92
2023/10/19 05:12:36;;;;;;;18.35;15.95;;;10.60;99.90;;;;;;4975090;28;20027;-93
2023/10/19 05:15:02;;;;;;;16.15;14.40;;;10.60;99.90;;;;;;4972663;28;20037;-92
2023/10/19 05:17:31;;;;;;;19.75;15.23;;;10.50;99.90;;;;;;4955024;28;20659;-91
2023/10/19 05:19:57;;;;;;;19.42;15.68;;;10.60;99.90;;;;;;4972868;28;20027;-93
2023/10/19 05:22:24;;;;;;;19.20;15.95;;;10.60;99.90;;;;;;4971975;28;20054;-90
2023/10/19 05:24:50;;;;;;;21.70;17.17;;;10.60;99.90;;;;;;4976547;28;20053;-92
2023/10/19 05:27:17;;;;;;;22.67;18.50;;;10.60;99.90;;;;;;4973485;28;20082;-92
2023/10/19 05:29:43;;;;;;;21.73;16.77;;;10.60;99.90;;;;;;4974187;28;20498;-91
2023/10/19 05:32:09;;;;;;;20.25;17.15;;;10.50;99.90;;;;;;4978234;28;20038;-90
2023/10/19 05:34:35;;;;;;;19.30;15.93;;;10.50;99.90;;;;;;4974713;28;20046;-90
2023/10/19 05:37:02;;;;;;;16.85;14.55;;;10.50;99.90;;;;;;4975918;28;20575;-92
2023/10/19 05:39:28;;;;;;;18.52;15.23;;;10.50;99.90;;;;;;4972860;28;20034;-91
2023/10/19 05:42:00;;;;;;;20.15;17.10;;;10.60;99.90;;;;;;4973083;28;20165;-93
2023/10/19 05:44:27;;;;;;;17.85;15.68;;;10.50;99.90;;;;;;4973894;28;20090;-92
2023/10/19 05:46:54;;;;;;;19.20;15.45;;;10.50;99.90;;;;;;4970067;28;20181;-90
2023/10/19 05:49:20;;;;;;;21.10;17.80;;;10.40;99.90;;;;;;4969143;28;20077;-91
2023/10/19 05:51:46;;;;;;;18.45;16.45;;;10.40;99.90;;;;;;4973075;28;20470;-92
2023/10/19 05:54:12;;;;;;;21.67;16.27;;;10.50;99.90;;;;;;4973017;28;20355;-93
2023/10/19 05:56:38;;;;;;;19.65;15.32;;;10.40;99.90;;;;;;4973292;28;20464;-92
2023/10/19 05:59:05;;;;;;;22.60;16.20;;;10.50;99.90;;;;;;4972831;28;20034;-95
2023/10/19 06:01:31;;;;;;;21.15;17.30;;;10.50;99.90;;;;;;4972038;28;20059;-91
2023/10/19 06:03:56;;;;;;;18.63;16.73;;;10.50;99.90;;;;;;4977871;28;20039;-91
2023/10/19 06:06:23;;;;;;;18.52;16.60;;;10.40;99.90;;;;;;4975270;28;20054;-92
2023/10/19 06:08:53;;;;;;;20.00;15.48;;;10.40;99.90;;;;;;4973740;28;20035;-93
2023/10/19 06:11:20;;;;;;;17.77;15.43;;;10.30;99.90;;;;;;4970910;28;20046;-91
2023/10/19 06:13:46;;;;;;;19.70;16.75;;;10.30;99.90;;;;;;4972190;28;20090;-92
2023/10/19 06:16:11;;;;;;;20.45;16.30;;;10.30;99.90;;;;;;4972864;28;20026;-92
2023/10/19 06:18:37;;;;;;;19.52;17.45;;;10.30;99.90;;;;;;4968564;28;20027;-92
2023/10/19 06:21:03;;;;;;;31.98;22.40;;;10.30;99.90;;;;;;4973537;28;20067;-91
2023/10/19 06:23:31;;;;;;;20.30;17.98;;;10.30;99.90;;;;;;4976902;28;20027;-92
2023/10/19 06:25:57;;;;;;;21.65;19.15;;;10.30;99.90;;;;;;4969711;28;20061;-93
2023/10/19 06:28:23;;;;;;;19.80;17.38;;;10.30;99.90;;;;;;4971020;28;20090;-90
2023/10/19 06:30:49;;;;;;;22.60;19.67;;;10.30;99.90;;;;;;4974092;28;20114;-91
2023/10/19 06:33:15;;;;;;;17.83;15.80;;;10.30;99.90;;;;;;4972843;28;20059;-93
2023/10/19 06:35:41;;;;;;;19.52;16.98;;;10.40;99.90;;;;;;4975194;28;20497;-92
2023/10/19 06:38:09;;;;;;;17.33;15.32;;;10.40;99.90;;;;;;4975161;28;20026;-91
2023/10/19 06:40:38;;;;;;;20.70;16.50;;;10.50;99.90;;;;;;4982932;28;20090;-94
2023/10/19 06:43:05;;;;;;;20.95;17.17;;;10.50;99.90;;;;;;4973234;28;20045;-94
2023/10/19 06:45:32;;;;;;;21.60;19.30;;;10.40;99.90;;;;;;4978416;28;20050;-92
2023/10/19 06:48:00;;;;;;;19.33;17.38;;;10.50;99.90;;;;;;4973119;28;20038;-92
2023/10/19 06:50:26;;;;;;;17.65;14.07;;;10.50;99.90;;;;;;4972712;28;20030;-93
2023/10/19 06:52:54;;;;;;;18.13;14.95;;;10.60;99.90;;;;;;4974293;28;20037;-93
2023/10/19 06:55:20;;;;;;;17.45;15.70;;;10.60;99.90;;;;;;4975797;28;20115;-96
2023/10/19 06:57:48;;;;;;;16.50;14.70;;;10.70;99.90;;;;;;4974362;28;20079;-95
2023/10/19 07:00:19;;;;;;;16.85;15.15;;;10.60;99.90;;;;;;4972648;28;20108;-93
2023/10/19 07:02:53;;;;;;;16.42;14.82;;;10.60;99.90;;;;;;4973988;28;20094;-93
2023/10/19 07:05:24;;;;;;;15.73;14.13;;;10.60;99.90;;;;;;4974198;28;20046;-93
2023/10/19 07:07:51;;;;;;;16.23;14.20;;;10.60;99.90;;;;;;4970860;28;20050;-93
2023/10/19 07:10:19;;;;;;;16.13;11.82;;;10.70;99.90;;;;;;4971923;28;20449;-90
2023/10/19 07:12:47;;;;;;;17.27;15.32;;;10.70;99.90;;;;;;4999294;28;20019;-91
2023/10/19 07:15:14;;;;;;;17.95;16.05;;;10.80;99.90;;;;;;4973316;28;20027;-92
2023/10/19 07:17:43;;;;;;;17.30;14.77;;;10.80;99.90;;;;;;4970773;28;20041;-91
2023/10/19 07:20:31;;;;;;;17.95;14.50;;;10.90;99.90;;;;;;4968074;28;20065;-91
2023/10/19 07:25:43;;;;;;;17.42;14.20;;;11.00;99.90;;;;;;4972126;28;20037;-93
2023/10/19 07:28:10;;;;;;;17.58;14.98;;;11.10;99.90;;;;;;4970808;28;20031;-93
2023/10/19 07:30:36;;;;;;;16.50;14.80;;;11.10;99.90;;;;;;4971821;28;20026;-93
2023/10/19 07:33:04;;;;;;;17.30;15.60;;;11.20;99.90;;;;;;4972414;28;20043;-91
2023/10/19 07:35:35;;;;;;;17.25;13.70;;;11.20;99.90;;;;;;4973954;28;20436;-93
2023/10/19 07:38:01;;;;;;;24.92;21.73;;;11.30;99.90;;;;;;4969234;28;20034;-92
2023/10/19 07:40:27;;;;;;;18.60;16.73;;;11.40;99.90;;;;;;4974567;28;20031;-91
2023/10/19 07:42:54;;;;;;;17.38;15.50;;;11.40;99.90;;;;;;4974190;28;20031;-92
2023/10/19 07:45:21;;;;;;;15.70;14.10;;;11.50;99.90;;;;;;4981371;28;20038;-91
2023/10/19 07:47:47;;;;;;;15.50;13.95;;;11.50;99.90;;;;;;4968192;28;20027;-91
2023/10/19 07:50:16;;;;;;;15.60;13.15;;;11.50;99.90;;;;;;4975467;28;20384;-92
2023/10/19 07:52:51;;;;;;;15.82;13.90;;;11.60;99.90;;;;;;4978148;28;20042;-95
2023/10/19 07:55:17;;;;;;;20.15;16.15;;;11.70;99.90;;;;;;4975733;28;20042;-93
2023/10/19 07:57:44;;;;;;;18.73;16.13;;;11.90;99.90;;;;;;4976415;28;20041;-94
2023/10/19 08:00:10;;;;;;;17.75;15.60;;;12.00;99.90;;;;;;4982771;28;20029;-94
2023/10/19 08:02:46;;;;;;;19.15;15.63;;;12.20;99.90;;;;;;4974362;28;20046;-92
2023/10/19 08:05:19;;;;;;;17.70;15.73;;;12.30;99.90;;;;;;4973245;28;20035;-93
2023/10/19 08:07:46;;;;;;;17.33;15.35;;;12.40;99.90;;;;;;4960772;28;20034;-90
2023/10/19 08:10:15;;;;;;;19.92;16.45;;;12.50;99.90;;;;;;4973333;28;20385;-92
2023/10/19 08:12:41;;;;;;;19.95;17.52;;;12.70;99.90;;;;;;4971490;28;20039;-90
2023/10/19 08:15:12;;;;;;;15.65;13.85;;;12.80;99.90;;;;;;4969913;28;20035;-91
2023/10/19 08:17:39;;;;;;;16.33;14.60;;;12.90;99.90;;;;;;4971222;28;20019;-93
2023/10/19 08:20:09;;;;;;;19.13;14.18;;;13.00;99.90;;;;;;4970836;28;20037;-92
2023/10/19 08:22:39;;;;;;;15.20;13.65;;;13.00;99.90;;;;;;4971707;28;20060;-92
2023/10/19 08:25:11;;;;;;;15.95;13.68;;;13.10;99.90;;;;;;4974597;28;20045;-93
2023/10/19 08:27:39;;;;;;;16.27;14.55;;;13.20;99.90;;;;;;4975971;28;20039;-92
2023/10/19 08:30:08;;;;;;;15.50;13.00;;;13.20;99.90;;;;;;4976995;28;20027;-93
2023/10/19 08:32:35;;;;;;;15.45;12.68;;;13.30;99.90;;;;;;4975462;28;20027;-93
2023/10/19 08:35:05;;;;;;;14.82;13.13;;;13.30;99.90;;;;;;4976790;28;20023;-90
2023/10/19 08:37:31;;;;;;;15.40;13.55;;;13.40;99.90;;;;;;4973322;28;20034;-93
2023/10/19 08:39:57;;;;;;;16.08;13.43;;;13.40;99.90;;;;;;4976158;28;20042;-94
2023/10/19 08:42:24;;;;;;;15.40;13.80;;;13.50;99.90;;;;;;4980831;28;20031;-92
2023/10/19 08:44:49;;;;;;;16.60;14.82;;;13.50;99.90;;;;;;4978223;28;20091;-94
2023/10/19 08:47:15;;;;;;;17.02;13.32;;;13.50;99.90;;;;;;4975648;28;20023;-92
2023/10/19 08:49:41;;;;;;;17.73;13.35;;;13.50;99.90;;;;;;4979165;28;20041;-91
2023/10/19 08:52:07;;;;;;;15.48;13.13;;;13.60;99.90;;;;;;4976536;28;20031;-93
2023/10/19 08:54:33;;;;;;;15.48;13.30;;;13.60;99.90;;;;;;4972321;28;20026;-94
2023/10/19 08:56:59;;;;;;;15.30;12.90;;;13.60;99.90;;;;;;4974118;28;20121;-94
2023/10/19 08:59:26;;;;;;;14.45;12.95;;;13.70;99.90;;;;;;4973989;28;20544;-90
2023/10/19 09:02:01;;;;;;;15.05;13.55;;;13.70;99.90;;;;;;4978743;28;20065;-91
2023/10/19 09:04:26;;;;;;;15.48;13.80;;;13.80;99.90;;;;;;4976212;28;20086;-93
2023/10/19 09:06:55;;;;;;;15.80;14.10;;;13.90;99.90;;;;;;4975469;28;20043;-90
2023/10/19 09:09:21;;;;;;;13.65;12.25;;;14.00;99.90;;;;;;4975054;28;20027;-92
2023/10/19 09:11:47;;;;;;;14.02;12.30;;;14.00;99.90;;;;;;4976326;28;20035;-94
2023/10/19 09:14:17;;;;;;;13.75;11.45;;;14.10;99.90;;;;;;4990873;28;20031;-92
2023/10/19 09:16:56;;;;;;;13.93;12.38;;;14.10;99.90;;;;;;4979622;28;20027;-92
2023/10/19 09:19:38;;;;;;;14.73;13.07;;;14.30;99.90;;;;;;4977231;28;20019;-91
2023/10/19 09:22:07;;;;;;;13.90;11.95;;;14.40;99.90;;;;;;4979525;28;20031;-94
2023/10/19 09:24:37;;;;;;;13.70;11.45;;;14.60;99.90;;;;;;4976079;28;20039;-92
2023/10/19 09:27:03;;;;;;;12.30;11.00;;;14.80;99.90;;;;;;4978509;28;20039;-93
2023/10/19 09:29:31;;;;;;;12.82;10.82;;;14.80;99.90;;;;;;4979672;28;20027;-94
2023/10/19 09:32:02;;;;;;;12.30;11.02;;;14.80;99.90;;;;;;4978738;28;20046;-95
2023/10/19 09:34:32;;;;;;;12.38;11.10;;;14.90;99.90;;;;;;4973890;28;20506;-92
2023/10/19 09:37:00;;;;;;;11.48;10.45;;;15.00;99.90;;;;;;4976887;28;20031;-92
2023/10/19 09:39:34;;;;;;;13.30;12.00;;;15.10;99.90;;;;;;4975176;28;20035;-93
2023/10/19 09:42:10;;;;;;;13.27;11.48;;;15.20;99.90;;;;;;4976913;28;20031;-93
2023/10/19 09:44:54;;;;;;;11.45;8.68;;;15.20;99.90;;;;;;4972181;28;20409;-93
2023/10/19 09:47:41;;;;;;;10.93;9.48;;;15.30;99.90;;;;;;4972607;28;20107;-95
2023/10/19 09:50:07;;;;;;;;;;;15.30;99.90;;;;;;4977137;28;20327;-92
2023/10/19 09:52:34;;;;;;;9.35;8.00;;;15.40;99.90;;;;;;4975488;28;20165;-92
2023/10/19 09:55:04;;;;;;;9.35;8.43;;;15.50;99.90;;;;;;4975156;28;20118;-95
2023/10/19 09:57:37;;;;;;;9.98;8.07;;;15.50;99.90;;;;;;4970990;28;20037;-92
2023/10/19 10:00:11;;;;;;;10.32;9.25;;;15.60;99.90;;;;;;4975752;28;20027;-96
2023/10/19 10:02:42;;;;;;;11.25;9.15;;;15.60;99.90;;;;;;4986942;28;20515;-94
2023/10/19 10:05:42;;;;;;;10.57;9.38;;;15.60;99.90;;;;;;4977086;28;20022;-92
2023/10/19 10:08:17;;;;;;;10.80;6.78;;;15.60;99.90;;;;;;4974716;28;20406;-95
2023/10/19 10:10:47;;;;;;;11.85;9.00;;;15.60;99.90;;;;;;4975820;28;20039;-92
2023/10/19 10:13:28;;;;;;;10.40;9.50;;;15.50;99.90;;;;;;4974769;28;20555;-91
2023/10/19 10:15:58;;;;;;;9.52;8.57;;;15.50;99.90;;;;;;4982836;28;20030;-92
2023/10/19 10:18:31;;;;;;;9.25;8.10;;;15.50;99.90;;;;;;4975920;28;20106;-94
2023/10/19 10:21:17;;;;;;;10.73;9.55;;;15.40;99.90;;;;;;4980344;28;20034;-95
2023/10/19 10:23:45;;;;;;;12.38;9.10;;;15.30;99.90;;;;;;4975921;28;20501;-94
2023/10/19 10:26:18;;;;;;;9.18;8.27;;;15.30;99.90;;;;;;4980981;28;20030;-94
2023/10/19 10:29:09;;;;;;;11.10;10.05;;;15.30;99.90;;;;;;4980280;28;20031;-93
2023/10/19 10:31:40;;;;;;;9.00;8.05;;;15.30;99.90;;;;;;4979261;28;20441;-92
2023/10/19 10:34:09;;;;;;;10.30;9.10;;;15.30;99.90;;;;;;4979794;28;20027;-93
2023/10/19 10:36:57;;;;;;;10.32;8.20;;;15.20;99.90;;;;;;4975625;28;20500;-92
2023/10/19 10:39:25;;;;;;;9.32;8.35;;;15.20;99.90;;;;;;4978297;28;20034;-92
2023/10/19 10:41:56;;;;;;;11.57;9.32;;;15.20;99.90;;;;;;4977564;28;20290;-94
2023/10/19 10:44:37;;;;;;;10.40;9.25;;;15.20;99.90;;;;;;4976030;28;20031;-90
2023/10/19 10:47:21;;;;;;;12.60;10.60;;;15.10;99.90;;;;;;4976476;28;20038;-94
2023/10/19 10:49:51;;;;;;;11.95;10.65;;;15.00;99.90;;;;;;4975317;28;20185;-90
2023/10/19 10:52:43;;;;;;;13.00;11.18;;;14.90;99.90;;;;;;4957925;28;20042;-93
2023/10/19 10:55:14;;;;;;;12.38;11.00;;;14.80;99.90;;;;;;4966298;28;20037;-91
2023/10/19 10:57:44;;;;;;;11.20;10.13;;;14.80;99.90;;;;;;4969908;28;20058;-90
2023/10/19 11:00:18;;;;;;;12.70;11.07;;;14.80;99.90;;;;;;4970224;28;20050;-92
2023/10/19 11:02:46;;;;;;;14.25;11.38;;;14.70;99.90;;;;;;4970887;28;20039;-91
2023/10/19 11:05:16;;;;;;;12.43;11.10;;;14.70;99.90;;;;;;4970549;28;20034;-91
2023/10/19 11:08:13;;;;;;;13.23;10.90;;;14.70;99.90;;;;;;4969542;28;20046;-89
2023/10/19 11:10:44;;;;;;;13.73;12.23;;;14.70;99.90;;;;;;4970895;28;20031;-91
2023/10/19 11:13:12;;;;;;;13.30;10.70;;;14.70;99.90;;;;;;4971811;28;20416;-91
2023/10/19 11:15:47;;;;;;;16.08;12.85;;;14.70;99.90;;;;;;4969474;28;20516;-90
2023/10/19 11:18:39;;;;;;;14.80;13.02;;;14.70;99.90;;;;;;4967328;28;20500;-89
2023/10/19 11:21:12;;;;;;;16.13;12.57;;;14.70;99.90;;;;;;4969798;28;20027;-92
2023/10/19 11:23:42;;;;;;;16.08;13.40;;;14.70;99.90;;;;;;4971760;28;20037;-91
2023/10/19 11:26:09;;;;;;;15.23;12.68;;;14.60;99.90;;;;;;4975073;28;20030;-90
2023/10/19 11:28:42;;;;;;;16.42;13.52;;;14.70;99.90;;;;;;4966662;28;20035;-91
2023/10/19 11:31:17;;;;;;;15.70;13.82;;;14.70;99.90;;;;;;4955685;28;20600;-90
2023/10/19 11:33:45;;;;;;;13.43;11.73;;;14.70;99.90;;;;;;4972340;28;20035;-91
2023/10/19 11:36:14;;;;;;;15.70;13.73;;;14.60;99.90;;;;;;4971812;28;20046;-91
2023/10/19 11:38:44;;;;;;;18.60;16.52;;;14.70;99.90;;;;;;4967448;28;20034;-92
2023/10/19 11:41:15;;;;;;;17.77;15.98;;;14.70;99.90;;;;;;4971286;28;20045;-90
2023/10/19 11:43:42;;;;;;;19.02;12.93;;;14.70;99.90;;;;;;4971456;28;20039;-89
2023/10/19 11:46:09;;;;;;;15.93;14.23;;;14.80;99.90;;;;;;4970846;28;20027;-90
2023/10/19 11:48:36;;;;;;;15.73;13.85;;;14.90;99.90;;;;;;4966735;28;20026;-89
2023/10/19 11:51:03;;;;;;;16.45;13.15;;;14.90;99.90;;;;;;4971565;28;20058;-89
2023/10/19 11:53:36;;;;;;;16.15;12.80;;;14.90;99.90;;;;;;4971886;28;20444;-90
2023/10/19 11:56:07;;;;;;;17.27;15.35;;;15.00;99.90;;;;;;4968993;28;20026;-90
2023/10/19 11:58:34;;;;;;;26.63;23.92;;;15.00;99.90;;;;;;4971990;28;20042;-90
2023/10/19 12:01:05;;;;;;;16.35;14.68;;;15.00;99.90;;;;;;4978059;28;20057;-89
2023/10/19 12:03:31;;;;;;;17.58;14.43;;;15.10;99.90;;;;;;4978861;28;20098;-90
2023/10/19 12:05:57;;;;;;;21.58;17.50;;;15.20;99.90;;;;;;4976211;28;20501;-91
2023/10/19 12:08:22;;;;;;;17.45;15.52;;;15.20;99.90;;;;;;4975533;28;20039;-92
2023/10/19 12:10:50;;;;;;;19.17;17.05;;;15.30;99.90;;;;;;4978153;28;20424;-93
2023/10/19 12:13:16;;;;;;;20.38;17.27;;;15.30;99.90;;;;;;4978829;28;20481;-91
2023/10/19 12:15:51;;;;;;;22.63;20.17;;;15.20;99.90;;;;;;4975456;28;20030;-91
2023/10/19 12:18:18;;;;;;;19.88;15.93;;;15.30;99.90;;;;;;4974563;28;20047;-91
2023/10/19 12:20:45;;;;;;;35.33;23.80;;;15.60;99.90;;;;;;4975805;28;20041;-94
2023/10/19 12:23:12;;;;;;;25.95;19.52;;;15.70;99.90;;;;;;4974474;28;20049;-93
2023/10/19 12:25:38;;;;;;;26.33;19.50;;;15.80;99.90;;;;;;4976654;28;20094;-91
2023/10/19 12:28:04;;;;;;;35.03;27.08;;;15.90;99.90;;;;;;4977155;28;20022;-92
2023/10/19 12:30:36;;;;;;;51.35;36.63;;;15.90;99.90;;;;;;4974139;28;20042;-90
2023/10/19 12:33:07;;;;;;;17.60;14.02;;;16.00;99.90;;;;;;4975234;28;20050;-93
2023/10/19 12:35:53;;;;;;;15.60;12.25;;;16.00;99.90;;;;;;4976478;28;20026;-93
2023/10/19 12:38:20;;;;;;;15.07;13.50;;;15.90;99.90;;;;;;4973481;28;20086;-92
2023/10/19 12:40:47;;;;;;;14.10;11.82;;;16.00;99.90;;;;;;4974817;28;20031;-92
2023/10/19 12:43:14;;;;;;;15.73;11.57;;;15.90;99.90;;;;;;4973515;28;20027;-92
2023/10/19 12:45:40;;;;;;;12.20;10.45;;;15.90;99.90;;;;;;4975309;28;20118;-92
2023/10/19 12:48:07;;;;;;;15.93;12.32;;;15.80;99.90;;;;;;4970335;28;20035;-93
2023/10/19 12:50:37;;;;;;;13.55;12.05;;;15.90;99.90;;;;;;4971043;28;20039;-92
2023/10/19 12:53:03;;;;;;;12.02;9.45;;;15.80;99.90;;;;;;4971058;28;20534;-93
2023/10/19 12:55:30;;;;;;;14.73;11.93;;;15.90;99.90;;;;;;4971237;28;20113;-93
2023/10/19 12:57:57;;;;;;;12.60;11.32;;;16.00;99.90;;;;;;4967507;28;20118;-91
2023/10/19 13:00:26;;;;;;;12.35;11.15;;;16.00;99.90;;;;;;4974137;28;20071;-92
2023/10/19 13:03:03;;;;;;;13.93;12.48;;;16.00;99.90;;;;;;4955875;28;20034;-91
2023/10/19 13:05:33;;;;;;;13.35;11.07;;;16.00;99.90;;;;;;4973424;28;20125;-91
2023/10/19 13:07:59;;;;;;;13.20;11.65;;;15.90;99.90;;;;;;4967887;28;20094;-92
2023/10/19 13:10:32;;;;;;;13.00;9.88;;;16.00;99.90;;;;;;4988959;28;20823;-93
2023/10/19 13:13:03;;;;;;;12.38;11.10;;;16.00;99.90;;;;;;4973335;28;20027;-92